Wetterdaten: Woche 20.06.11 - 26.06.11 (KW25)
Datum Zeit Temp. Innen Temp. Aussen UV X Diff Temp. Feuchte Inne Feuchte Auss Sonnenschein Luftdruck Regen ab 0,1 Wind Sonnenschein T Regendauer Windben
20.06.2011 00:00 20,7 C 12,7 C 0,1 UV-I 0,0 C 55 % 81 % 0 % 1015,6 hPa 0,0 l/m 0,2 km/h (0 Bft) 0,00 h 0,00 h 0,6 km/h (0 Bft)
20.06.2011 01:00 20,5 C 12,2 C 0,1 UV-I 0,0 C 55 % 83 % 0 % 1015,6 hPa 0,0 l/m 1,1 km/h (1 Bft) 0,00 h 0,00 h 2,3 km/h (1 Bft)
20.06.2011 02:00 20,4 C 11,7 C 0,1 UV-I 0,0 C 53 % 81 % 0 % 1015,6 hPa 0,0 l/m 1,4 km/h (1 Bft) 0,00 h 0,00 h 2,1 km/h (1 Bft)
20.06.2011 03:00 20,2 C 11,2 C 0,1 UV-I 0,0 C 53 % 80 % 0 % 1015,7 hPa 0,0 l/m 2,4 km/h (1 Bft) 0,00 h 0,00 h 4,4 km/h (1 Bft)
20.06.2011 04:00 20,0 C 10,8 C 0,1 UV-I 0,0 C 52 % 81 % 0 % 1015,3 hPa 0,0 l/m 2,0 km/h (1 Bft) 0,00 h 0,00 h 2,6 km/h (1 Bft)
20.06.2011 05:00 19,8 C 10,2 C 0,1 UV-I 0,0 C 52 % 81 % 0 % 1015,5 hPa 0,0 l/m 1,0 km/h (0 Bft) 0,00 h 0,00 h 1,9 km/h (1 Bft)
20.06.2011 06:00 19,8 C 10,1 C 0,5 UV-I 0,0 C 52 % 82 % 0 % 1015,1 hPa 0,0 l/m 0,4 km/h (0 Bft) 0,00 h 0,00 h 0,5 km/h (0 Bft)
20.06.2011 07:00 19,8 C 11,2 C 1,1 UV-I 0,0 C 52 % 81 % 0 % 1014,9 hPa 0,0 l/m 1,0 km/h (0 Bft) 0,00 h 0,00 h 1,9 km/h (1 Bft)
20.06.2011 08:00 19,9 C 13,4 C 2,9 UV-I 3,6 C 52 % 76 % 74 % 1014,8 hPa 0,0 l/m 2,0 km/h (1 Bft) 0,57 h 0,00 h 2,3 km/h (1 Bft)
20.06.2011 09:00 20,1 C 15,9 C 6,7 UV-I 6,1 C 52 % 68 % 100 % 1014,6 hPa 0,0 l/m 3,2 km/h (1 Bft) 1,00 h 0,00 h 4,1 km/h (1 Bft)
20.06.2011 10:00 20,3 C 16,0 C 1,7 UV-I 1,7 C 52 % 68 % 48 % 1014,7 hPa 0,0 l/m 2,3 km/h (1 Bft) 0,17 h 0,13 h 3,2 km/h (1 Bft)
20.06.2011 11:00 20,5 C 15,4 C 1,5 UV-I 0,4 C 53 % 72 % 11 % 1014,5 hPa 0,1 l/m 2,1 km/h (1 Bft) 0,00 h 0,57 h 3,2 km/h (1 Bft)
20.06.2011 12:00 20,7 C 14,9 C 1,7 UV-I 0,2 C 53 % 78 % 6 % 1014,5 hPa 0,3 l/m 3,3 km/h (1 Bft) 0,00 h 0,53 h 3,5 km/h (1 Bft)
20.06.2011 13:00 20,7 C 14,4 C 2,0 UV-I 0,2 C 54 % 84 % 7 % 1014,4 hPa 0,2 l/m 3,8 km/h (1 Bft) 0,00 h 0,40 h 4,5 km/h (1 Bft)
20.06.2011 14:00 20,9 C 14,7 C 1,7 UV-I 0,7 C 55 % 86 % 20 % 1014,2 hPa 0,1 l/m 3,2 km/h (1 Bft) 0,00 h 0,10 h 3,7 km/h (1 Bft)
20.06.2011 15:00 21,0 C 15,3 C 2,3 UV-I 1,8 C 56 % 87 % 51 % 1013,8 hPa 0,0 l/m 2,6 km/h (1 Bft) 0,00 h 0,03 h 3,1 km/h (1 Bft)
20.06.2011 16:00 21,2 C 16,2 C 2,1 UV-I 1,9 C 56 % 86 % 54 % 1013,5 hPa 0,0 l/m 3,5 km/h (1 Bft) 0,00 h 0,00 h 4,1 km/h (1 Bft)
20.06.2011 17:00 21,2 C 16,8 C 1,6 UV-I 1,6 C 56 % 84 % 45 % 1013,4 hPa 0,0 l/m 2,1 km/h (1 Bft) 0,00 h 0,00 h 2,4 km/h (1 Bft)
20.06.2011 18:00 21,3 C 17,1 C 1,4 UV-I 1,5 C 56 % 82 % 43 % 1013,1 hPa 0,0 l/m 1,6 km/h (1 Bft) 0,00 h 0,00 h 2,3 km/h (1 Bft)
20.06.2011 19:00 21,5 C 17,0 C 0,9 UV-I 0,8 C 56 % 82 % 23 % 1013,2 hPa 0,0 l/m 1,0 km/h (0 Bft) 0,00 h 0,00 h 1,9 km/h (1 Bft)
20.06.2011 20:00 21,3 C 16,8 C 0,3 UV-I 0,1 C 57 % 83 % 4 % 1013,3 hPa 0,0 l/m 0,9 km/h (0 Bft) 0,00 h 0,00 h 0,9 km/h (0 Bft)
20.06.2011 21:00 21,2 C 16,4 C 0,1 UV-I 0,0 C 58 % 85 % 0 % 1013,5 hPa 0,0 l/m 0,4 km/h (0 Bft) 0,00 h 0,00 h 0,6 km/h (0 Bft)
20.06.2011 22:00 21,1 C 15,9 C 0,0 UV-I 0,0 C 58 % 87 % 0 % 1013,6 hPa 0,0 l/m 0,3 km/h (0 Bft) 0,00 h 0,00 h 0,6 km/h (0 Bft)
20.06.2011 23:00 20,8 C 15,5 C 0,0 UV-I 0,0 C 59 % 89 % 0 % 1013,5 hPa 0,0 l/m 1,3 km/h (1 Bft) 0,00 h 0,00 h 2,0 km/h (1 Bft)
21.06.2011 00:00 20,7 C 15,6 C 0,0 UV-I 0,0 C 60 % 90 % 0 % 1013,3 hPa 0,0 l/m 0,1 km/h (0 Bft) 0,00 h 0,00 h 0,4 km/h (0 Bft)
21.06.2011 01:00 20,7 C 15,7 C 0,0 UV-I 0,0 C 61 % 91 % 0 % 1013,0 hPa 0,1 l/m 0,5 km/h (0 Bft) 0,00 h 0,40 h 1,2 km/h (1 Bft)
21.06.2011 02:00 20,8 C 15,6 C 0,0 UV-I 0,0 C 61 % 90 % 0 % 1013,0 hPa 0,1 l/m 2,1 km/h (1 Bft) 0,00 h 0,43 h 3,5 km/h (1 Bft)
21.06.2011 03:00 20,9 C 15,4 C 0,0 UV-I 0,0 C 61 % 90 % 0 % 1012,8 hPa 0,0 l/m 0,9 km/h (0 Bft) 0,00 h 0,00 h 2,3 km/h (1 Bft)
21.06.2011 04:00 20,8 C 15,2 C 0,0 UV-I 0,0 C 61 % 91 % 0 % 1012,5 hPa 0,0 l/m 0,2 km/h (0 Bft) 0,00 h 0,00 h 0,4 km/h (0 Bft)
21.06.2011 05:00 20,7 C 15,3 C 0,0 UV-I 0,0 C 62 % 91 % 0 % 1012,3 hPa 0,0 l/m 0,6 km/h (0 Bft) 0,00 h 0,27 h 1,0 km/h (0 Bft)
21.06.2011 06:00 20,7 C 15,5 C 0,1 UV-I 0,0 C 62 % 92 % 0 % 1012,5 hPa 0,7 l/m 1,1 km/h (1 Bft) 0,00 h 0,67 h 1,5 km/h (1 Bft)
21.06.2011 07:00 20,8 C 15,8 C 0,3 UV-I 0,0 C 63 % 93 % 0 % 1012,6 hPa 1,0 l/m 1,1 km/h (0 Bft) 0,00 h 0,90 h 1,0 km/h (0 Bft)
21.06.2011 08:00 20,9 C 16,2 C 0,6 UV-I 0,1 C 63 % 93 % 4 % 1012,6 hPa 0,1 l/m 0,6 km/h (0 Bft) 0,00 h 0,13 h 1,4 km/h (1 Bft)
21.06.2011 09:00 21,1 C 17,2 C 1,6 UV-I 1,5 C 64 % 93 % 42 % 1012,7 hPa 0,0 l/m 3,3 km/h (1 Bft) 0,00 h 0,00 h 4,7 km/h (1 Bft)
21.06.2011 10:00 21,4 C 18,1 C 1,9 UV-I 1,5 C 63 % 89 % 44 % 1013,2 hPa 0,0 l/m 4,0 km/h (1 Bft) 0,17 h 0,07 h 5,5 km/h (1 Bft)
21.06.2011 11:00 21,7 C 19,4 C 3,6 UV-I 3,5 C 62 % 81 % 87 % 1013,6 hPa 0,0 l/m 6,5 km/h (2 Bft) 0,67 h 0,00 h 8,2 km/h (2 Bft)
21.06.2011 12:00 22,1 C 20,7 C 3,6 UV-I 3,9 C 61 % 72 % 93 % 1013,9 hPa 0,0 l/m 7,6 km/h (2 Bft) 0,80 h 0,00 h 9,0 km/h (2 Bft)
21.06.2011 13:00 22,3 C 20,8 C 2,9 UV-I 2,6 C 60 % 69 % 74 % 1014,3 hPa 0,0 l/m 6,9 km/h (2 Bft) 0,43 h 0,00 h 7,7 km/h (2 Bft)
21.06.2011 14:00 22,4 C 20,7 C 1,8 UV-I 1,9 C 59 % 68 % 53 % 1014,7 hPa 0,0 l/m 4,5 km/h (1 Bft) 0,00 h 0,00 h 5,5 km/h (1 Bft)
21.06.2011 15:00 22,7 C 21,8 C 3,8 UV-I 3,4 C 59 % 66 % 93 % 1014,9 hPa 0,0 l/m 5,2 km/h (1 Bft) 0,93 h 0,00 h 6,8 km/h (2 Bft)
21.06.2011 16:00 23,3 C 22,9 C 4,9 UV-I 3,7 C 57 % 63 % 91 % 1014,9 hPa 0,0 l/m 5,3 km/h (1 Bft) 0,80 h 0,00 h 5,9 km/h (2 Bft)
21.06.2011 17:00 23,9 C 23,0 C 3,7 UV-I 3,2 C 56 % 63 % 84 % 1014,9 hPa 0,0 l/m 5,5 km/h (1 Bft) 0,63 h 0,00 h 5,8 km/h (2 Bft)
21.06.2011 18:00 24,1 C 22,9 C 2,3 UV-I 2,6 C 56 % 64 % 73 % 1014,6 hPa 0,0 l/m 5,4 km/h (1 Bft) 0,50 h 0,00 h 6,4 km/h (2 Bft)
21.06.2011 19:00 23,9 C 22,1 C 1,0 UV-I 0,4 C 56 % 65 % 13 % 1014,5 hPa 0,0 l/m 3,6 km/h (1 Bft) 0,00 h 0,00 h 3,9 km/h (1 Bft)
21.06.2011 20:00 23,6 C 21,1 C 0,5 UV-I 0,0 C 56 % 68 % 0 % 1014,4 hPa 0,0 l/m 2,7 km/h (1 Bft) 0,00 h 0,00 h 3,5 km/h (1 Bft)
21.06.2011 21:00 23,2 C 19,8 C 0,1 UV-I 0,0 C 57 % 71 % 0 % 1014,5 hPa 0,0 l/m 0,4 km/h (0 Bft) 0,00 h 0,00 h 0,5 km/h (0 Bft)
21.06.2011 22:00 22,9 C 18,6 C 0,0 UV-I 0,0 C 58 % 76 % 0 % 1014,8 hPa 0,0 l/m 0,0 km/h (0 Bft) 0,00 h 0,00 h 0,0 km/h (0 Bft)
21.06.2011 23:00 22,7 C 18,0 C 0,0 UV-I 0,0 C 59 % 81 % 0 % 1014,8 hPa 0,0 l/m 0,1 km/h (0 Bft) 0,00 h 0,00 h 0,4 km/h (0 Bft)
22.06.2011 00:00 22,5 C 17,4 C 0,0 UV-I 0,0 C 60 % 82 % 0 % 1014,6 hPa 0,0 l/m 0,2 km/h (0 Bft) 0,00 h 0,00 h 0,1 km/h (0 Bft)
22.06.2011 01:00 22,4 C 17,3 C 0,0 UV-I 0,0 C 60 % 84 % 0 % 1014,4 hPa 0,0 l/m 0,6 km/h (0 Bft) 0,00 h 0,00 h 1,1 km/h (1 Bft)
22.06.2011 02:00 22,3 C 17,5 C 0,0 UV-I 0,0 C 61 % 85 % 0 % 1014,0 hPa 0,0 l/m 0,0 km/h (0 Bft) 0,00 h 0,10 h 0,1 km/h (0 Bft)
22.06.2011 03:00 22,2 C 16,9 C 0,0 UV-I 0,0 C 61 % 86 % 0 % 1013,7 hPa 0,0 l/m 0,0 km/h (0 Bft) 0,00 h 0,00 h 0,1 km/h (0 Bft)
22.06.2011 04:00 22,2 C 16,2 C 0,0 UV-I 0,0 C 61 % 88 % 0 % 1013,0 hPa 0,0 l/m 0,0 km/h (0 Bft) 0,00 h 0,00 h 0,1 km/h (0 Bft)
22.06.2011 05:00 22,1 C 16,2 C 0,0 UV-I 0,0 C 62 % 89 % 0 % 1012,8 hPa 0,0 l/m 0,9 km/h (0 Bft) 0,00 h 0,10 h 2,3 km/h (1 Bft)
22.06.2011 06:00 22,1 C 16,9 C 0,2 UV-I 0,0 C 62 % 89 % 0 % 1012,5 hPa 0,0 l/m 1,9 km/h (1 Bft) 0,00 h 0,13 h 2,0 km/h (1 Bft)
22.06.2011 07:00 22,2 C 17,9 C 0,8 UV-I 0,5 C 62 % 89 % 14 % 1012,5 hPa 0,0 l/m 2,3 km/h (1 Bft) 0,00 h 0,00 h 3,3 km/h (1 Bft)
22.06.2011 08:00 22,4 C 19,1 C 1,1 UV-I 1,0 C 62 % 85 % 29 % 1012,4 hPa 0,0 l/m 3,8 km/h (1 Bft) 0,00 h 0,00 h 5,1 km/h (1 Bft)
22.06.2011 09:00 22,6 C 20,0 C 2,9 UV-I 2,9 C 62 % 81 % 80 % 1012,0 hPa 0,0 l/m 3,2 km/h (1 Bft) 0,63 h 0,00 h 4,3 km/h (1 Bft)
22.06.2011 10:00 22,8 C 20,6 C 2,5 UV-I 2,6 C 62 % 75 % 74 % 1011,8 hPa 0,0 l/m 4,4 km/h (1 Bft) 0,23 h 0,00 h 6,5 km/h (2 Bft)
22.06.2011 11:00 23,0 C 20,4 C 0,9 UV-I 0,7 C 61 % 75 % 21 % 1011,5 hPa 0,0 l/m 2,9 km/h (1 Bft) 0,00 h 0,17 h 3,9 km/h (1 Bft)
22.06.2011 12:00 22,9 C 18,9 C 0,8 UV-I 0,0 C 61 % 84 % 0 % 1011,5 hPa 1,7 l/m 1,6 km/h (1 Bft) 0,00 h 1,00 h 2,4 km/h (1 Bft)
22.06.2011 13:00 22,8 C 17,6 C 0,9 UV-I 0,0 C 62 % 88 % 0 % 1011,6 hPa 1,2 l/m 3,5 km/h (1 Bft) 0,00 h 1,00 h 5,0 km/h (1 Bft)
22.06.2011 14:00 22,6 C 17,1 C 0,9 UV-I 0,0 C 63 % 90 % 0 % 1011,7 hPa 0,7 l/m 3,9 km/h (1 Bft) 0,00 h 0,93 h 4,3 km/h (1 Bft)
22.06.2011 15:00 22,5 C 16,6 C 1,7 UV-I 0,2 C 63 % 89 % 6 % 1010,9 hPa 0,0 l/m 5,0 km/h (1 Bft) 0,00 h 0,10 h 6,1 km/h (2 Bft)
22.06.2011 16:00 22,6 C 16,5 C 2,7 UV-I 1,7 C 62 % 85 % 49 % 1011,9 hPa 0,0 l/m 7,3 km/h (2 Bft) 0,17 h 0,00 h 9,9 km/h (2 Bft)
22.06.2011 17:00 23,3 C 17,9 C 5,0 UV-I 3,7 C 59 % 77 % 99 % 1012,4 hPa 0,0 l/m 9,4 km/h (2 Bft) 1,00 h 0,00 h 12,8 km/h (3 Bft)
22.06.2011 18:00 24,0 C 18,2 C 2,0 UV-I 2,5 C 55 % 69 % 69 % 1012,9 hPa 0,0 l/m 9,6 km/h (2 Bft) 0,43 h 0,00 h 10,1 km/h (2 Bft)
22.06.2011 19:00 23,6 C 18,2 C 1,3 UV-I 0,2 C 54 % 66 % 4 % 1013,2 hPa 0,0 l/m 7,4 km/h (2 Bft) 0,00 h 0,00 h 8,8 km/h (2 Bft)
22.06.2011 20:00 23,2 C 17,6 C 0,5 UV-I 0,0 C 53 % 63 % 0 % 1013,6 hPa 0,0 l/m 7,9 km/h (2 Bft) 0,00 h 0,00 h 8,4 km/h (2 Bft)
22.06.2011 21:00 22,7 C 16,6 C 0,0 UV-I 0,0 C 53 % 66 % 0 % 1014,0 hPa 0,0 l/m 4,4 km/h (1 Bft) 0,00 h 0,00 h 4,5 km/h (1 Bft)
22.06.2011 22:00 22,3 C 15,9 C 0,0 UV-I 0,0 C 54 % 70 % 0 % 1014,4 hPa 0,0 l/m 3,5 km/h (1 Bft) 0,00 h 0,00 h 4,4 km/h (1 Bft)
22.06.2011 23:00 22,0 C 15,6 C 0,0 UV-I 0,0 C 54 % 73 % 0 % 1014,8 hPa 0,0 l/m 5,1 km/h (1 Bft) 0,00 h 0,00 h 7,7 km/h (2 Bft)
23.06.2011 00:00 21,8 C 15,5 C 0,0 UV-I 0,0 C 55 % 75 % 0 % 1014,6 hPa 0,0 l/m 3,8 km/h (1 Bft) 0,00 h 0,00 h 5,3 km/h (1 Bft)
23.06.2011 01:00 21,6 C 14,7 C 0,0 UV-I 0,0 C 56 % 79 % 0 % 1014,6 hPa 0,0 l/m 1,4 km/h (1 Bft) 0,00 h 0,00 h 2,0 km/h (1 Bft)
23.06.2011 02:00 21,5 C 13,9 C 0,0 UV-I 0,0 C 57 % 82 % 0 % 1014,3 hPa 0,0 l/m 0,7 km/h (0 Bft) 0,00 h 0,00 h 1,8 km/h (1 Bft)
23.06.2011 03:00 21,5 C 14,3 C 0,0 UV-I 0,0 C 57 % 83 % 0 % 1014,1 hPa 0,0 l/m 1,7 km/h (1 Bft) 0,00 h 0,00 h 2,3 km/h (1 Bft)
23.06.2011 04:00 21,4 C 14,3 C 0,0 UV-I 0,0 C 57 % 83 % 0 % 1014,3 hPa 0,0 l/m 2,5 km/h (1 Bft) 0,00 h 0,03 h 2,5 km/h (1 Bft)
23.06.2011 05:00 21,2 C 13,7 C 0,0 UV-I 0,0 C 57 % 85 % 0 % 1014,5 hPa 0,0 l/m 2,6 km/h (1 Bft) 0,00 h 0,00 h 3,6 km/h (1 Bft)
23.06.2011 06:00 21,2 C 14,0 C 0,2 UV-I 0,0 C 57 % 84 % 0 % 1014,8 hPa 0,0 l/m 4,3 km/h (1 Bft) 0,00 h 0,00 h 5,7 km/h (1 Bft)
23.06.2011 07:00 21,2 C 14,6 C 0,6 UV-I 0,5 C 57 % 81 % 13 % 1015,2 hPa 0,0 l/m 5,0 km/h (1 Bft) 0,00 h 0,00 h 5,2 km/h (1 Bft)
23.06.2011 08:00 21,3 C 14,8 C 0,6 UV-I 0,5 C 56 % 78 % 15 % 1015,4 hPa 0,0 l/m 6,0 km/h (2 Bft) 0,00 h 0,00 h 7,9 km/h (2 Bft)
23.06.2011 09:00 21,4 C 15,4 C 1,9 UV-I 1,7 C 55 % 77 % 48 % 1015,8 hPa 0,0 l/m 6,5 km/h (2 Bft) 0,00 h 0,00 h 7,5 km/h (2 Bft)
23.06.2011 10:00 21,6 C 16,4 C 4,6 UV-I 3,4 C 54 % 72 % 87 % 1015,9 hPa 0,0 l/m 8,0 km/h (2 Bft) 0,60 h 0,00 h 8,5 km/h (2 Bft)
23.06.2011 11:00 21,8 C 18,0 C 5,4 UV-I 5,5 C 54 % 66 % 100 % 1016,0 hPa 0,0 l/m 7,5 km/h (2 Bft) 1,00 h 0,00 h 9,4 km/h (2 Bft)
23.06.2011 12:00 22,0 C 18,9 C 3,3 UV-I 5,0 C 52 % 60 % 100 % 1016,1 hPa 0,0 l/m 7,9 km/h (2 Bft) 1,00 h 0,00 h 9,4 km/h (2 Bft)
23.06.2011 13:00 22,3 C 19,3 C 3,8 UV-I 4,1 C 51 % 55 % 98 % 1016,2 hPa 0,0 l/m 8,7 km/h (2 Bft) 1,00 h 0,00 h 10,3 km/h (2 Bft)
23.06.2011 14:00 22,8 C 20,1 C 5,4 UV-I 4,5 C 49 % 50 % 99 % 1016,1 hPa 0,1 l/m 10,0 km/h (2 Bft) 1,00 h 0,00 h 10,4 km/h (2 Bft)
23.06.2011 15:00 23,7 C 20,9 C 5,2 UV-I 4,5 C 46 % 47 % 100 % 1016,2 hPa 0,0 l/m 9,0 km/h (2 Bft) 1,00 h 0,00 h 10,2 km/h (2 Bft)
23.06.2011 16:00 24,3 C 20,6 C 5,1 UV-I 3,6 C 45 % 49 % 88 % 1016,8 hPa 0,0 l/m 9,0 km/h (2 Bft) 0,77 h 0,03 h 10,3 km/h (2 Bft)
23.06.2011 17:00 24,1 C 16,3 C 1,0 UV-I 0,0 C 46 % 71 % 1 % 1017,4 hPa 0,1 l/m 6,8 km/h (2 Bft) 0,00 h 0,47 h 7,6 km/h (2 Bft)
23.06.2011 18:00 23,5 C 14,4 C 0,9 UV-I 0,2 C 48 % 81 % 7 % 1017,8 hPa 0,7 l/m 2,5 km/h (1 Bft) 0,00 h 0,27 h 2,7 km/h (1 Bft)
23.06.2011 19:00 23,2 C 15,7 C 1,4 UV-I 0,7 C 50 % 80 % 21 % 1017,9 hPa 0,0 l/m 2,5 km/h (1 Bft) 0,00 h 0,00 h 3,6 km/h (1 Bft)
23.06.2011 20:00 22,9 C 15,2 C 0,6 UV-I 0,0 C 51 % 77 % 0 % 1017,9 hPa 0,0 l/m 2,6 km/h (1 Bft) 0,00 h 0,00 h 3,8 km/h (1 Bft)
23.06.2011 21:00 22,4 C 14,5 C 0,0 UV-I 0,0 C 51 % 78 % 0 % 1018,3 hPa 0,0 l/m 2,3 km/h (1 Bft) 0,00 h 0,00 h 2,9 km/h (1 Bft)
23.06.2011 22:00 22,0 C 13,8 C 0,0 UV-I 0,0 C 52 % 81 % 0 % 1018,9 hPa 0,0 l/m 0,7 km/h (0 Bft) 0,00 h 0,00 h 2,1 km/h (1 Bft)
23.06.2011 23:00 21,7 C 12,9 C 0,0 UV-I 0,0 C 52 % 82 % 0 % 1019,1 hPa 0,0 l/m 1,0 km/h (0 Bft) 0,00 h 0,00 h 1,6 km/h (1 Bft)
24.06.2011 00:00 21,4 C 12,5 C 0,0 UV-I 0,0 C 53 % 84 % 0 % 1019,0 hPa 0,0 l/m 0,7 km/h (0 Bft) 0,00 h 0,00 h 1,1 km/h (1 Bft)
24.06.2011 01:00 21,2 C 12,1 C 0,0 UV-I 0,0 C 54 % 85 % 0 % 1019,1 hPa 0,0 l/m 1,3 km/h (1 Bft) 0,00 h 0,00 h 2,7 km/h (1 Bft)
24.06.2011 02:00 21,0 C 11,8 C 0,0 UV-I 0,0 C 53 % 85 % 0 % 1019,2 hPa 0,0 l/m 2,1 km/h (1 Bft) 0,00 h 0,00 h 3,4 km/h (1 Bft)
24.06.2011 03:00 20,9 C 11,7 C 0,0 UV-I 0,0 C 53 % 84 % 0 % 1019,5 hPa 0,0 l/m 2,5 km/h (1 Bft) 0,00 h 0,00 h 3,4 km/h (1 Bft)
24.06.2011 04:00 20,7 C 11,7 C 0,0 UV-I 0,0 C 53 % 84 % 0 % 1019,8 hPa 0,0 l/m 2,6 km/h (1 Bft) 0,00 h 0,00 h 4,3 km/h (1 Bft)
24.06.2011 05:00 20,6 C 11,4 C 0,0 UV-I 0,0 C 53 % 84 % 0 % 1019,8 hPa 0,0 l/m 2,7 km/h (1 Bft) 0,00 h 0,00 h 3,6 km/h (1 Bft)
24.06.2011 06:00 20,5 C 11,6 C 0,1 UV-I 0,0 C 54 % 86 % 0 % 1020,3 hPa 0,0 l/m 2,9 km/h (1 Bft) 0,00 h 0,00 h 3,3 km/h (1 Bft)
24.06.2011 07:00 20,5 C 12,3 C 0,7 UV-I 0,3 C 54 % 86 % 9 % 1020,8 hPa 0,0 l/m 2,9 km/h (1 Bft) 0,00 h 0,00 h 4,2 km/h (1 Bft)
24.06.2011 08:00 20,7 C 13,4 C 1,4 UV-I 1,3 C 54 % 85 % 37 % 1021,3 hPa 0,0 l/m 3,8 km/h (1 Bft) 0,00 h 0,00 h 5,7 km/h (1 Bft)
24.06.2011 09:00 20,9 C 14,0 C 1,2 UV-I 1,2 C 55 % 83 % 35 % 1021,9 hPa 0,0 l/m 4,7 km/h (1 Bft) 0,00 h 0,00 h 5,6 km/h (1 Bft)
24.06.2011 10:00 21,1 C 14,9 C 3,2 UV-I 3,3 C 55 % 82 % 70 % 1022,0 hPa 0,0 l/m 4,6 km/h (1 Bft) 0,50 h 0,00 h 5,3 km/h (1 Bft)
24.06.2011 11:00 21,4 C 17,0 C 5,0 UV-I 6,0 C 54 % 71 % 100 % 1021,9 hPa 0,0 l/m 5,9 km/h (2 Bft) 1,00 h 0,00 h 7,6 km/h (2 Bft)
24.06.2011 12:00 21,6 C 16,6 C 2,6 UV-I 2,2 C 53 % 68 % 53 % 1022,1 hPa 0,0 l/m 6,3 km/h (2 Bft) 0,30 h 0,30 h 7,8 km/h (2 Bft)
24.06.2011 13:00 21,8 C 17,5 C 4,0 UV-I 6,0 C 53 % 65 % 97 % 1022,5 hPa 0,0 l/m 5,5 km/h (1 Bft) 0,93 h 0,00 h 8,7 km/h (2 Bft)
24.06.2011 14:00 22,3 C 17,4 C 2,6 UV-I 3,4 C 52 % 61 % 65 % 1022,7 hPa 0,1 l/m 7,0 km/h (2 Bft) 0,57 h 0,27 h 7,6 km/h (2 Bft)
24.06.2011 15:00 22,4 C 14,3 C 1,4 UV-I 0,4 C 51 % 78 % 12 % 1023,5 hPa 0,3 l/m 1,7 km/h (1 Bft) 0,00 h 0,30 h 1,6 km/h (1 Bft)
24.06.2011 16:00 22,1 C 14,1 C 1,0 UV-I 0,2 C 52 % 78 % 6 % 1023,5 hPa 0,0 l/m 1,8 km/h (1 Bft) 0,00 h 0,00 h 2,7 km/h (1 Bft)
24.06.2011 17:00 22,2 C 16,0 C 2,9 UV-I 2,8 C 52 % 75 % 81 % 1023,5 hPa 0,0 l/m 3,1 km/h (1 Bft) 0,53 h 0,00 h 3,9 km/h (1 Bft)
24.06.2011 18:00 22,6 C 16,9 C 1,7 UV-I 2,1 C 51 % 68 % 59 % 1023,6 hPa 0,0 l/m 3,0 km/h (1 Bft) 0,23 h 0,00 h 3,3 km/h (1 Bft)
24.06.2011 19:00 22,4 C 16,7 C 1,0 UV-I 0,6 C 51 % 66 % 18 % 1023,7 hPa 0,0 l/m 1,7 km/h (1 Bft) 0,00 h 0,00 h 2,8 km/h (1 Bft)
24.06.2011 20:00 22,2 C 16,5 C 0,3 UV-I 0,0 C 51 % 67 % 0 % 1024,1 hPa 0,0 l/m 0,9 km/h (0 Bft) 0,00 h 0,00 h 1,1 km/h (1 Bft)
24.06.2011 21:00 21,9 C 15,6 C 0,0 UV-I 0,0 C 52 % 71 % 0 % 1024,7 hPa 0,0 l/m 0,9 km/h (0 Bft) 0,00 h 0,00 h 1,3 km/h (1 Bft)
24.06.2011 22:00 21,6 C 13,9 C 0,0 UV-I 0,0 C 52 % 75 % 0 % 1024,9 hPa 0,0 l/m 0,1 km/h (0 Bft) 0,00 h 0,00 h 0,4 km/h (0 Bft)
24.06.2011 23:00 21,1 C 12,4 C 0,0 UV-I 0,0 C 54 % 80 % 0 % 1024,9 hPa 0,0 l/m 0,0 km/h (0 Bft) 0,00 h 0,00 h 0,0 km/h (0 Bft)
25.06.2011 00:00 20,8 C 11,2 C 0,0 UV-I 0,0 C 54 % 84 % 0 % 1025,0 hPa 0,0 l/m 0,0 km/h (0 Bft) 0,00 h 0,00 h 0,0 km/h (0 Bft)
25.06.2011 01:00 20,6 C 11,1 C 0,0 UV-I 0,0 C 55 % 87 % 0 % 1025,4 hPa 0,0 l/m 0,0 km/h (0 Bft) 0,00 h 0,00 h 0,2 km/h (0 Bft)
25.06.2011 02:00 20,5 C 11,2 C 0,0 UV-I 0,0 C 55 % 87 % 0 % 1025,0 hPa 0,0 l/m 0,0 km/h (0 Bft) 0,00 h 0,00 h 0,0 km/h (0 Bft)
25.06.2011 03:00 20,4 C 11,2 C 0,0 UV-I 0,0 C 55 % 88 % 0 % 1024,6 hPa 0,0 l/m 0,0 km/h (0 Bft) 0,00 h 0,00 h 0,0 km/h (0 Bft)
25.06.2011 04:00 20,4 C 11,4 C 0,0 UV-I 0,0 C 56 % 89 % 0 % 1024,5 hPa 0,0 l/m 0,1 km/h (0 Bft) 0,00 h 0,00 h 0,2 km/h (0 Bft)
25.06.2011 05:00 20,3 C 11,9 C 0,0 UV-I 0,0 C 55 % 87 % 0 % 1024,7 hPa 0,0 l/m 0,1 km/h (0 Bft) 0,00 h 0,10 h 0,4 km/h (0 Bft)
25.06.2011 06:00 20,2 C 12,3 C 0,0 UV-I 0,0 C 55 % 86 % 0 % 1024,4 hPa 0,0 l/m 0,3 km/h (0 Bft) 0,00 h 0,00 h 0,9 km/h (0 Bft)
25.06.2011 07:00 20,3 C 12,8 C 0,3 UV-I 0,1 C 55 % 84 % 3 % 1024,5 hPa 0,0 l/m 1,4 km/h (1 Bft) 0,00 h 0,07 h 3,2 km/h (1 Bft)
25.06.2011 08:00 20,5 C 13,0 C 0,4 UV-I 0,1 C 54 % 82 % 2 % 1024,8 hPa 0,0 l/m 2,7 km/h (1 Bft) 0,00 h 0,50 h 5,0 km/h (1 Bft)
25.06.2011 09:00 20,5 C 12,1 C 0,5 UV-I 0,0 C 54 % 82 % 0 % 1025,4 hPa 0,6 l/m 3,3 km/h (1 Bft) 0,00 h 1,00 h 3,8 km/h (1 Bft)
25.06.2011 10:00 20,3 C 11,5 C 0,8 UV-I 0,0 C 55 % 87 % 0 % 1025,5 hPa 0,7 l/m 1,7 km/h (1 Bft) 0,00 h 1,00 h 3,1 km/h (1 Bft)
25.06.2011 11:00 20,3 C 11,9 C 0,9 UV-I 0,0 C 56 % 90 % 0 % 1025,3 hPa 0,4 l/m 1,8 km/h (1 Bft) 0,00 h 0,90 h 2,3 km/h (1 Bft)
25.06.2011 12:00 20,3 C 12,6 C 1,1 UV-I 0,1 C 56 % 90 % 2 % 1024,8 hPa 0,2 l/m 2,7 km/h (1 Bft) 0,00 h 0,67 h 3,5 km/h (1 Bft)
25.06.2011 13:00 20,5 C 13,1 C 0,9 UV-I 0,0 C 57 % 91 % 0 % 1024,5 hPa 0,5 l/m 3,2 km/h (1 Bft) 0,00 h 0,90 h 4,4 km/h (1 Bft)
25.06.2011 14:00 20,6 C 13,7 C 1,9 UV-I 0,4 C 57 % 91 % 12 % 1024,1 hPa 0,2 l/m 3,5 km/h (1 Bft) 0,00 h 0,43 h 4,3 km/h (1 Bft)
25.06.2011 15:00 20,8 C 13,9 C 0,8 UV-I 0,1 C 58 % 91 % 2 % 1023,8 hPa 0,1 l/m 3,3 km/h (1 Bft) 0,00 h 0,20 h 3,9 km/h (1 Bft)
25.06.2011 16:00 20,7 C 14,2 C 0,6 UV-I 0,0 C 58 % 92 % 1 % 1023,7 hPa 0,2 l/m 2,1 km/h (1 Bft) 0,00 h 0,47 h 2,2 km/h (1 Bft)
25.06.2011 17:00 20,7 C 14,5 C 0,4 UV-I 0,0 C 59 % 92 % 1 % 1023,5 hPa 0,2 l/m 2,5 km/h (1 Bft) 0,00 h 0,30 h 3,5 km/h (1 Bft)
25.06.2011 18:00 20,6 C 14,8 C 0,1 UV-I 0,0 C 60 % 92 % 0 % 1023,5 hPa 0,0 l/m 1,9 km/h (1 Bft) 0,00 h 0,13 h 1,5 km/h (1 Bft)
25.06.2011 19:00 20,6 C 15,1 C 0,0 UV-I 0,0 C 61 % 93 % 0 % 1023,1 hPa 0,1 l/m 1,7 km/h (1 Bft) 0,00 h 0,40 h 2,1 km/h (1 Bft)
25.06.2011 20:00 20,6 C 15,5 C 0,0 UV-I 0,0 C 62 % 93 % 0 % 1023,2 hPa 0,0 l/m 2,2 km/h (1 Bft) 0,00 h 0,17 h 3,6 km/h (1 Bft)
25.06.2011 21:00 20,5 C 15,8 C 0,0 UV-I 0,0 C 63 % 93 % 0 % 1023,6 hPa 0,0 l/m 1,3 km/h (1 Bft) 0,00 h 0,07 h 1,9 km/h (1 Bft)
25.06.2011 22:00 20,5 C 16,0 C 0,0 UV-I 0,0 C 64 % 93 % 0 % 1023,7 hPa 0,0 l/m 1,8 km/h (1 Bft) 0,00 h 0,00 h 1,9 km/h (1 Bft)
25.06.2011 23:00 20,6 C 16,4 C 0,0 UV-I 0,0 C 64 % 93 % 0 % 1023,7 hPa 0,0 l/m 2,3 km/h (1 Bft) 0,00 h 0,03 h 3,8 km/h (1 Bft)
26.06.2011 00:00 20,5 C 16,5 C 0,0 UV-I 0,0 C 64 % 92 % 0 % 1023,6 hPa 0,0 l/m 1,5 km/h (1 Bft) 0,00 h 0,00 h 2,6 km/h (1 Bft)
26.06.2011 01:00 20,6 C 16,7 C 0,0 UV-I 0,0 C 65 % 92 % 0 % 1023,6 hPa 0,0 l/m 2,0 km/h (1 Bft) 0,00 h 0,00 h 2,8 km/h (1 Bft)
26.06.2011 02:00 20,6 C 16,9 C 0,0 UV-I 0,0 C 65 % 91 % 0 % 1023,6 hPa 0,0 l/m 3,1 km/h (1 Bft) 0,00 h 0,00 h 4,5 km/h (1 Bft)
26.06.2011 03:00 20,7 C 16,7 C 0,0 UV-I 0,0 C 65 % 91 % 0 % 1023,7 hPa 0,0 l/m 2,9 km/h (1 Bft) 0,00 h 0,00 h 4,0 km/h (1 Bft)
26.06.2011 04:00 20,8 C 16,4 C 0,0 UV-I 0,0 C 65 % 91 % 0 % 1023,6 hPa 0,0 l/m 3,7 km/h (1 Bft) 0,00 h 0,03 h 4,6 km/h (1 Bft)
26.06.2011 05:00 20,7 C 16,2 C 0,0 UV-I 0,0 C 65 % 91 % 0 % 1023,9 hPa 0,0 l/m 2,1 km/h (1 Bft) 0,00 h 0,00 h 3,4 km/h (1 Bft)
26.06.2011 06:00 20,7 C 16,1 C 0,1 UV-I 0,0 C 65 % 91 % 0 % 1023,9 hPa 0,0 l/m 1,8 km/h (1 Bft) 0,00 h 0,30 h 2,3 km/h (1 Bft)
26.06.2011 07:00 20,8 C 16,5 C 0,1 UV-I 0,1 C 65 % 91 % 4 % 1024,3 hPa 0,0 l/m 1,1 km/h (1 Bft) 0,00 h 0,53 h 1,5 km/h (1 Bft)
26.06.2011 08:00 20,8 C 16,9 C 0,5 UV-I 0,5 C 65 % 91 % 15 % 1024,6 hPa 0,0 l/m 1,5 km/h (1 Bft) 0,00 h 0,00 h 1,9 km/h (1 Bft)
26.06.2011 09:00 21,1 C 17,8 C 1,1 UV-I 1,2 C 65 % 90 % 36 % 1024,9 hPa 0,0 l/m 1,7 km/h (1 Bft) 0,00 h 0,00 h 2,0 km/h (1 Bft)
26.06.2011 10:00 21,3 C 18,5 C 1,5 UV-I 1,8 C 64 % 88 % 52 % 1025,3 hPa 0,0 l/m 1,5 km/h (1 Bft) 0,00 h 0,00 h 2,7 km/h (1 Bft)
26.06.2011 11:00 21,6 C 19,1 C 2,3 UV-I 2,3 C 64 % 86 % 67 % 1025,4 hPa 0,0 l/m 1,8 km/h (1 Bft) 0,20 h 0,00 h 2,5 km/h (1 Bft)
26.06.2011 12:00 22,0 C 20,4 C 3,5 UV-I 4,6 C 63 % 83 % 100 % 1025,4 hPa 0,0 l/m 1,9 km/h (1 Bft) 1,00 h 0,00 h 2,6 km/h (1 Bft)
26.06.2011 13:00 22,3 C 21,4 C 3,9 UV-I 5,2 C 63 % 79 % 100 % 1025,6 hPa 0,0 l/m 1,5 km/h (1 Bft) 1,00 h 0,00 h 1,9 km/h (1 Bft)
26.06.2011 14:00 22,8 C 22,6 C 4,9 UV-I 6,0 C 62 % 76 % 100 % 1025,6 hPa 0,0 l/m 3,1 km/h (1 Bft) 1,00 h 0,00 h 3,3 km/h (1 Bft)
26.06.2011 15:00 23,6 C 24,2 C 5,7 UV-I 6,9 C 60 % 69 % 100 % 1025,6 hPa 0,0 l/m 4,3 km/h (1 Bft) 1,00 h 0,00 h 4,7 km/h (1 Bft)
26.06.2011 16:00 24,1 C 23,9 C 4,0 UV-I 3,8 C 59 % 68 % 96 % 1025,5 hPa 0,0 l/m 3,9 km/h (1 Bft) 0,93 h 0,00 h 4,3 km/h (1 Bft)
26.06.2011 17:00 24,6 C 25,0 C 7,0 UV-I 6,5 C 59 % 63 % 100 % 1025,1 hPa 0,0 l/m 4,8 km/h (1 Bft) 1,00 h 0,00 h 5,1 km/h (1 Bft)
26.06.2011 18:00 25,0 C 25,1 C 2,5 UV-I 4,3 C 57 % 61 % 78 % 1025,0 hPa 0,0 l/m 3,0 km/h (1 Bft) 0,57 h 0,00 h 3,7 km/h (1 Bft)
26.06.2011 19:00 24,6 C 24,4 C 1,0 UV-I 0,3 C 58 % 60 % 8 % 1024,2 hPa 0,0 l/m 2,3 km/h (1 Bft) 0,00 h 0,00 h 3,9 km/h (1 Bft)
26.06.2011 20:00 24,2 C 23,9 C 0,4 UV-I 0,0 C 59 % 63 % 0 % 1023,9 hPa 0,0 l/m 1,0 km/h (0 Bft) 0,00 h 0,00 h 1,4 km/h (1 Bft)
26.06.2011 21:00 24,0 C 22,4 C 0,0 UV-I 0,0 C 59 % 69 % 0 % 1023,7 hPa 0,0 l/m 0,2 km/h (0 Bft) 0,00 h 0,00 h 0,1 km/h (0 Bft)
26.06.2011 22:00 23,7 C 20,5 C 0,0 UV-I 0,0 C 60 % 74 % 0 % 1023,5 hPa 0,0 l/m 0,0 km/h (0 Bft) 0,00 h 0,00 h 0,0 km/h (0 Bft)
26.06.2011 23:00 23,4 C 18,7 C 0,0 UV-I 0,0 C 60 % 80 % 0 % 1023,3 hPa 0,0 l/m 0,0 km/h (0 Bft) 0,00 h 0,03 h 0,0 km/h (0 Bft)
Min-Datum _ 20.06.11 20.06.11 20.06.11 20.06.11 23.06.11 23.06.11 20.06.11 22.06.11 - 20.06.11 - - 20.06.11
_ Min-Zeit 06:32 06:18 02:40 00:00 16:38 15:34 00:00 15:26 - 00:00 - - 00:00
Minimum _ 19,7 C 9,8 C 0,0 UV-I 0,0 C 44 % 44 % 0 % 1009,7 hPa - 0,0 km/h (0 Bft) - - 0,0 km/h (0 Bft)
Max-Datum _ 26.06.11 26.06.11 26.06.11 26.06.11 26.06.11 21.06.11 20.06.11 25.06.11 22.06.11 23.06.11 20.06.11 20.06.11 24.06.11
_ Max-Zeit 18:08 17:58 17:24 14:58 09:00 07:22 08:28 10:06 12:54 17:02 08:26 10:30 13:52
Maximum _ 25,1 C 25,5 C 8,8 UV-I 8,3 C 66 % 93 % 100 % 1025,8 hPa 1,7 l/m 13,7 km/h
SO (3 Bft)
0,03 h 0,03 h 37,3 km/h
S (5 Bft)
Durchschnitt _ 21,7 C 16,3 C 1,2 UV-I 1,0 C 57 % 80 % 24 % 1018,3 hPa #10,5 l/m 2,8 km/h (1 Bft) #26:16 h #18:04 h 3,6 km/h (1 Bft)
© 2012 W. Hausmann